Time;durP1;ratioP1;P1;durP2;ratioP2;P2;SDS_P1;SDS_P2;PMS_P1;PMS_P2;Temp;Humidity;BMP_temperature;BMP_pressure;BME280_temperature;BME280_humidity;BME280_pressure;Samples;Min_cycle;Max_cycle;Signal;HPM_P1;HPM_P2
2023/09/21 00:00:45;;;;;;;13.82;12.85;;;17.20;99.90;;;;;;6239532;23;20008;-83
2023/09/21 00:03:14;;;;;;;9.98;9.05;;;17.20;99.90;;;;;;6214076;23;20366;-83
2023/09/21 00:05:40;;;;;;;10.77;9.90;;;17.20;99.90;;;;;;6239865;23;20453;-83
2023/09/21 00:08:06;;;;;;;10.43;9.52;;;17.20;99.90;;;;;;6214380;23;20024;-83
2023/09/21 00:10:33;;;;;;;12.75;10.63;;;17.20;99.90;;;;;;6213412;23;20458;-82
2023/09/21 00:13:00;;;;;;;11.18;10.20;;;17.20;99.90;;;;;;6214115;23;20016;-83
2023/09/21 00:15:27;;;;;;;9.13;7.18;;;17.20;99.90;;;;;;6183912;23;20012;-83
2023/09/21 00:17:53;;;;;;;9.45;6.85;;;17.20;99.90;;;;;;6210357;23;20024;-83
2023/09/21 00:20:28;;;;;;;9.82;8.95;;;17.20;99.90;;;;;;6209168;23;20327;-83
2023/09/21 00:22:54;;;;;;;8.45;7.65;;;17.10;99.90;;;;;;6207996;23;20020;-83
2023/09/21 00:25:22;;;;;;;18.95;12.20;;;17.20;99.90;;;;;;6182318;23;20013;-83
2023/09/21 00:27:48;;;;;;;10.23;7.90;;;17.20;99.90;;;;;;6233717;23;20092;-83
2023/09/21 00:30:14;;;;;;;11.98;10.85;;;17.20;99.90;;;;;;6208817;23;20044;-83
2023/09/21 00:32:43;;;;;;;9.48;6.80;;;17.10;99.90;;;;;;6210513;23;20438;-82
2023/09/21 00:35:10;;;;;;;12.43;7.18;;;17.10;99.90;;;;;;6184083;23;20027;-82
2023/09/21 00:37:40;;;;;;;12.05;10.23;;;17.10;99.90;;;;;;6208891;23;20476;-83
2023/09/21 00:40:18;;;;;;;18.40;17.00;;;17.10;99.90;;;;;;6233809;23;20364;-83
2023/09/21 00:42:47;;;;;;;10.18;9.38;;;17.10;99.90;;;;;;6208845;23;20017;-83
2023/09/21 00:45:14;;;;;;;16.95;15.75;;;17.20;99.90;;;;;;6210600;23;20074;-83
2023/09/21 00:47:44;;;;;;;10.15;7.50;;;17.20;99.90;;;;;;6233937;23;20017;-83
2023/09/21 00:50:12;;;;;;;13.95;12.73;;;17.30;99.90;;;;;;6184025;23;20051;-84
2023/09/21 00:52:44;;;;;;;7.68;6.82;;;17.30;99.90;;;;;;6233640;23;20017;-83
2023/09/21 00:55:13;;;;;;;15.30;13.85;;;17.30;99.90;;;;;;6233908;23;20020;-83
2023/09/21 00:57:40;;;;;;;10.02;8.05;;;17.30;99.90;;;;;;6233946;23;20020;-84
2023/09/21 01:00:13;;;;;;;8.48;7.30;;;17.30;99.90;;;;;;6234026;23;20019;-84
2023/09/21 01:02:42;;;;;;;10.77;9.93;;;17.20;99.90;;;;;;6209203;23;20008;-83
2023/09/21 01:05:09;;;;;;;20.05;18.45;;;17.20;99.90;;;;;;6208938;23;20028;-83
2023/09/21 01:07:38;;;;;;;7.18;6.47;;;17.20;99.90;;;;;;6183755;23;20039;-84
2023/09/21 01:10:07;;;;;;;8.07;7.28;;;17.30;99.90;;;;;;6208886;23;20020;-83
2023/09/21 01:12:35;;;;;;;9.60;8.77;;;17.30;99.90;;;;;;6233968;23;20012;-83
2023/09/21 01:15:11;;;;;;;10.52;8.52;;;17.00;99.90;;;;;;6208416;23;20510;-83
2023/09/21 01:17:41;;;;;;;9.50;7.40;;;17.20;99.90;;;;;;6208814;23;20013;-83
2023/09/21 01:20:23;;;;;;;17.27;15.73;;;17.20;99.90;;;;;;6209151;23;20017;-84
2023/09/21 01:23:11;;;;;;;15.77;14.63;;;17.30;99.90;;;;;;6183700;23;20059;-83
2023/09/21 01:25:42;;;;;;;7.30;6.60;;;17.30;99.90;;;;;;6209372;23;20016;-83
2023/09/21 01:28:10;;;;;;;8.73;7.68;;;17.30;99.90;;;;;;6211909;23;20483;-83
2023/09/21 01:30:37;;;;;;;9.68;8.82;;;17.30;99.90;;;;;;6209051;23;20058;-83
2023/09/21 01:33:08;;;;;;;13.25;8.18;;;17.30;99.90;;;;;;6234273;23;20466;-83
2023/09/21 01:35:36;;;;;;;17.27;15.77;;;17.30;99.90;;;;;;6209503;23;20012;-84
2023/09/21 01:38:03;;;;;;;13.57;12.13;;;17.30;99.90;;;;;;6184797;23;20458;-83
2023/09/21 01:40:28;;;;;;;12.35;11.15;;;17.30;99.90;;;;;;6236106;23;20012;-83
2023/09/21 01:42:55;;;;;;;8.38;6.82;;;17.40;99.90;;;;;;6210780;23;20483;-83
2023/09/21 01:45:21;;;;;;;18.08;16.58;;;17.40;99.90;;;;;;6210414;23;20075;-83
2023/09/21 01:47:46;;;;;;;15.82;14.23;;;17.30;99.90;;;;;;6235639;23;20763;-82
2023/09/21 01:50:15;;;;;;;9.52;8.60;;;17.10;99.90;;;;;;6235939;23;20047;-82
2023/09/21 01:52:41;;;;;;;7.70;6.72;;;17.30;99.90;;;;;;6210031;23;20013;-83
2023/09/21 01:55:11;;;;;;;8.13;7.43;;;17.30;99.90;;;;;;6210820;23;20016;-86
2023/09/21 01:57:38;;;;;;;11.65;7.95;;;17.30;99.90;;;;;;6185436;23;20347;-83
2023/09/21 02:00:21;;;;;;;9.82;9.02;;;17.40;99.90;;;;;;6210598;23;20012;-83
2023/09/21 02:02:47;;;;;;;8.18;7.43;;;17.50;99.90;;;;;;6185688;23;20009;-83
2023/09/21 02:05:13;;;;;;;10.10;9.20;;;17.50;99.90;;;;;;6235209;23;20027;-83
2023/09/21 02:07:40;;;;;;;8.45;7.70;;;17.50;99.90;;;;;;6185215;23;20343;-84
2023/09/21 02:10:10;;;;;;;11.13;8.63;;;17.50;99.90;;;;;;6210288;23;20470;-83
2023/09/21 02:12:37;;;;;;;12.32;11.25;;;17.50;99.90;;;;;;6210423;23;20008;-83
2023/09/21 02:15:12;;;;;;;17.50;16.23;;;17.60;99.90;;;;;;6235305;23;20039;-83
2023/09/21 02:17:41;;;;;;;9.80;8.90;;;17.50;99.90;;;;;;6235219;23;20012;-84
2023/09/21 02:20:14;;;;;;;9.20;8.30;;;17.60;99.90;;;;;;6184550;23;20051;-83
2023/09/21 02:22:48;;;;;;;8.88;7.95;;;17.50;99.90;;;;;;6210099;23;20020;-83
2023/09/21 02:25:14;;;;;;;9.38;7.07;;;17.40;99.90;;;;;;6210164;23;20067;-83
2023/09/21 02:27:41;;;;;;;8.88;7.63;;;17.40;99.90;;;;;;6209984;23;20009;-83
2023/09/21 02:30:14;;;;;;;9.65;8.05;;;17.30;99.90;;;;;;6209921;23;20024;-83
2023/09/21 02:32:41;;;;;;;8.70;7.25;;;17.30;99.90;;;;;;6210117;23;20012;-83
2023/09/21 02:35:13;;;;;;;10.20;9.30;;;17.30;99.90;;;;;;6211179;23;20008;-83
2023/09/21 02:37:42;;;;;;;7.95;7.15;;;17.30;99.90;;;;;;6235390;23;20017;-83
2023/09/21 02:40:10;;;;;;;16.02;14.63;;;17.30;99.90;;;;;;6235233;23;20044;-83
2023/09/21 02:42:36;;;;;;;17.17;15.88;;;17.30;99.90;;;;;;6184815;23;20021;-83
2023/09/21 02:45:04;;;;;;;13.02;12.05;;;17.30;99.90;;;;;;6235624;23;20378;-82
2023/09/21 02:47:30;;;;;;;10.00;9.10;;;17.30;99.90;;;;;;6234410;23;20040;-82
2023/09/21 02:49:56;;;;;;;8.93;8.13;;;17.30;99.90;;;;;;6234498;23;20013;-82
2023/09/21 02:52:22;;;;;;;10.48;6.90;;;17.30;99.90;;;;;;6209882;23;20079;-83
2023/09/21 02:54:47;;;;;;;9.35;8.55;;;17.30;99.90;;;;;;6209964;23;20040;-83
2023/09/21 02:57:13;;;;;;;18.10;16.80;;;17.30;99.90;;;;;;6210096;23;20473;-83
2023/09/21 02:59:38;;;;;;;12.48;11.38;;;17.20;99.90;;;;;;6184988;23;20004;-83
2023/09/21 03:02:04;;;;;;;10.48;9.52;;;17.20;99.90;;;;;;6235073;23;20071;-84
2023/09/21 03:04:32;;;;;;;9.18;8.35;;;17.20;99.90;;;;;;6208943;23;20044;-83
2023/09/21 03:06:57;;;;;;;18.30;16.95;;;17.30;99.90;;;;;;6209983;23;20070;-83
2023/09/21 03:09:23;;;;;;;8.63;7.82;;;17.30;99.90;;;;;;6234623;23;20083;-83
2023/09/21 03:11:49;;;;;;;18.05;16.75;;;17.30;99.90;;;;;;6234901;23;20013;-83
2023/09/21 03:14:15;;;;;;;16.02;14.68;;;17.30;99.90;;;;;;6234582;23;20028;-83
2023/09/21 03:16:44;;;;;;;8.70;7.47;;;17.30;99.90;;;;;;6184654;23;20025;-83
2023/09/21 03:19:10;;;;;;;7.53;6.57;;;17.20;99.90;;;;;;6208948;23;20016;-83
2023/09/21 03:21:35;;;;;;;9.27;8.38;;;17.10;99.90;;;;;;6184682;23;20596;-83
2023/09/21 03:24:02;;;;;;;10.75;9.73;;;17.10;99.90;;;;;;6209683;23;20096;-83
2023/09/21 03:26:28;;;;;;;10.00;9.15;;;17.10;99.90;;;;;;6209493;23;20059;-83
2023/09/21 03:28:54;;;;;;;9.63;8.70;;;17.10;99.90;;;;;;6210140;23;20146;-83
2023/09/21 03:31:20;;;;;;;9.90;7.72;;;17.10;99.90;;;;;;6235011;23;20044;-83
2023/09/21 03:33:46;;;;;;;8.43;6.97;;;17.00;99.90;;;;;;6209103;23;20013;-83
2023/09/21 03:36:13;;;;;;;11.68;10.65;;;16.90;99.90;;;;;;6210080;23;20390;-83
2023/09/21 03:38:42;;;;;;;13.63;9.73;;;16.90;99.90;;;;;;6184417;23;20016;-83
2023/09/21 03:41:08;;;;;;;16.48;15.27;;;16.90;99.90;;;;;;6211829;23;20004;-83
2023/09/21 03:43:33;;;;;;;9.88;7.53;;;16.80;99.90;;;;;;6209513;23;20145;-83
2023/09/21 03:45:59;;;;;;;9.40;8.50;;;16.90;99.90;;;;;;6209440;23;20072;-83
2023/09/21 03:48:25;;;;;;;9.40;8.50;;;16.80;99.90;;;;;;6208916;23;20021;-83
2023/09/21 03:50:52;;;;;;;10.60;9.75;;;16.80;99.90;;;;;;6234971;23;20099;-83
2023/09/21 03:53:18;;;;;;;15.38;14.18;;;16.80;99.90;;;;;;6209384;23;20167;-83
2023/09/21 03:55:46;;;;;;;11.10;10.23;;;16.80;99.90;;;;;;6184315;23;20016;-83
2023/09/21 03:58:12;;;;;;;12.68;10.98;;;16.80;99.90;;;;;;6237770;23;20017;-83
2023/09/21 04:00:38;;;;;;;10.48;9.43;;;16.80;99.90;;;;;;6185889;23;20460;-83
2023/09/21 04:03:12;;;;;;;16.77;15.18;;;16.90;99.90;;;;;;6209209;23;20012;-82
2023/09/21 04:05:40;;;;;;;11.18;6.03;;;16.90;99.90;;;;;;6185988;23;20074;-83
2023/09/21 04:08:07;;;;;;;11.02;7.65;;;16.90;99.90;;;;;;6210218;23;20336;-84
2023/09/21 04:10:33;;;;;;;15.45;14.20;;;16.90;99.90;;;;;;6210024;23;20021;-84
2023/09/21 04:12:59;;;;;;;9.50;6.53;;;16.90;99.90;;;;;;6184552;23;20012;-84
2023/09/21 04:15:29;;;;;;;11.88;10.75;;;16.90;99.90;;;;;;6214361;23;20020;-84
2023/09/21 04:17:59;;;;;;;10.45;9.60;;;17.00;99.90;;;;;;6213380;23;20027;-83
2023/09/21 04:20:25;;;;;;;8.20;7.07;;;16.90;99.90;;;;;;6240469;23;20059;-84
2023/09/21 04:22:52;;;;;;;11.90;10.80;;;16.90;99.90;;;;;;6188927;23;20012;-83
2023/09/21 04:25:18;;;;;;;10.27;9.35;;;16.90;99.90;;;;;;6189117;23;20022;-83
2023/09/21 04:27:46;;;;;;;11.48;10.52;;;16.80;99.90;;;;;;6213601;23;20016;-84
2023/09/21 04:30:14;;;;;;;17.05;15.57;;;16.80;99.90;;;;;;6212159;23;20019;-83
2023/09/21 04:32:47;;;;;;;13.38;12.38;;;16.80;99.90;;;;;;6212786;23;20090;-83
2023/09/21 04:35:15;;;;;;;12.75;11.13;;;16.80;99.90;;;;;;6238540;23;20096;-84
2023/09/21 04:37:45;;;;;;;9.13;8.27;;;16.80;99.90;;;;;;6212816;23;20044;-83
2023/09/21 04:40:12;;;;;;;12.80;11.73;;;16.70;99.90;;;;;;6213087;23;20193;-82
2023/09/21 04:42:39;;;;;;;9.23;7.93;;;16.70;99.90;;;;;;6238295;23;20438;-83
2023/09/21 04:45:11;;;;;;;19.42;18.08;;;16.70;99.90;;;;;;6237808;23;20039;-83
2023/09/21 04:47:48;;;;;;;10.55;9.75;;;16.70;99.90;;;;;;6212975;23;20012;-83
2023/09/21 04:50:16;;;;;;;11.73;10.68;;;16.70;99.90;;;;;;6237937;23;20020;-83
2023/09/21 04:52:43;;;;;;;16.63;15.32;;;16.80;99.90;;;;;;6238544;23;20024;-84
2023/09/21 04:55:10;;;;;;;15.98;14.77;;;16.80;99.90;;;;;;6238100;23;20076;-83
2023/09/21 04:57:36;;;;;;;12.30;11.25;;;16.80;99.90;;;;;;6212755;23;20039;-83
2023/09/21 05:00:07;;;;;;;10.05;9.13;;;16.80;99.90;;;;;;6186449;23;20551;-84
2023/09/21 05:02:33;;;;;;;9.30;8.55;;;16.70;99.90;;;;;;6212820;23;20011;-84
2023/09/21 05:04:59;;;;;;;8.48;7.68;;;16.80;99.90;;;;;;6187561;23;20039;-83
2023/09/21 05:07:25;;;;;;;12.23;11.15;;;16.70;99.90;;;;;;6213652;23;20092;-83
2023/09/21 05:09:51;;;;;;;20.90;19.25;;;16.70;99.90;;;;;;6237675;23;20047;-83
2023/09/21 05:12:18;;;;;;;8.20;6.63;;;16.70;99.90;;;;;;6238962;23;20008;-83
2023/09/21 05:14:48;;;;;;;14.35;11.73;;;16.70;99.90;;;;;;6189355;23;20439;-83
2023/09/21 05:17:18;;;;;;;8.70;7.90;;;16.80;99.90;;;;;;6239109;23;20031;-84
2023/09/21 05:19:44;;;;;;;9.85;8.93;;;16.80;99.90;;;;;;6188553;23;20013;-83
2023/09/21 05:22:10;;;;;;;8.30;7.00;;;16.90;99.90;;;;;;6213229;23;20015;-83
2023/09/21 05:24:36;;;;;;;10.02;9.02;;;16.90;99.90;;;;;;6188286;23;20039;-83
2023/09/21 05:27:02;;;;;;;8.30;6.10;;;16.90;99.90;;;;;;6238924;23;20020;-83
2023/09/21 05:29:28;;;;;;;8.23;7.43;;;17.00;99.90;;;;;;6212669;23;20079;-83
2023/09/21 05:31:54;;;;;;;9.93;8.07;;;17.00;99.90;;;;;;6189141;23;20044;-84
2023/09/21 05:34:21;;;;;;;11.23;8.00;;;17.10;99.90;;;;;;6240544;23;20411;-83
2023/09/21 05:36:50;;;;;;;9.02;7.47;;;17.30;99.90;;;;;;6215544;23;20440;-83
2023/09/21 05:39:19;;;;;;;9.00;8.30;;;17.30;99.90;;;;;;6215759;23;20026;-83
2023/09/21 05:41:48;;;;;;;19.00;17.67;;;17.40;99.90;;;;;;6215687;23;20386;-83
2023/09/21 05:44:14;;;;;;;12.88;11.63;;;17.50;99.90;;;;;;6214835;23;20040;-83
2023/09/21 05:46:41;;;;;;;15.98;14.73;;;17.50;99.90;;;;;;6240941;23;20012;-83
2023/09/21 05:49:09;;;;;;;8.02;7.30;;;17.50;99.90;;;;;;6215300;23;20085;-83
2023/09/21 05:51:39;;;;;;;8.98;6.95;;;17.50;99.90;;;;;;6215067;23;20378;-83
2023/09/21 05:54:05;;;;;;;8.52;7.63;;;17.50;99.90;;;;;;6215450;23;20431;-84
2023/09/21 05:56:31;;;;;;;8.73;7.32;;;17.60;99.90;;;;;;6215209;23;20067;-83
2023/09/21 05:58:59;;;;;;;9.25;8.35;;;17.70;99.90;;;;;;6214794;23;20016;-84
2023/09/21 06:01:26;;;;;;;9.50;8.60;;;17.80;99.90;;;;;;6215773;23;20346;-84
2023/09/21 06:03:52;;;;;;;8.63;7.93;;;17.90;99.90;;;;;;6215296;23;20020;-84
2023/09/21 06:06:19;;;;;;;9.50;8.48;;;17.90;99.90;;;;;;6242890;23;20035;-83
2023/09/21 06:08:45;;;;;;;9.60;8.73;;;18.00;99.90;;;;;;6215412;23;20023;-83
2023/09/21 06:11:11;;;;;;;9.95;9.15;;;18.10;99.90;;;;;;6215416;23;20015;-84
2023/09/21 06:13:37;;;;;;;8.10;7.35;;;18.10;99.90;;;;;;6240016;23;20016;-83
2023/09/21 06:16:03;;;;;;;8.75;7.85;;;18.10;99.90;;;;;;6240447;23;20358;-84
2023/09/21 06:18:29;;;;;;;8.27;7.50;;;18.20;99.90;;;;;;6189890;23;20020;-84
2023/09/21 06:20:55;;;;;;;8.95;7.88;;;18.30;99.90;;;;;;6240388;23;20200;-84
2023/09/21 06:23:22;;;;;;;9.55;8.63;;;18.20;99.90;;;;;;6214663;23;20008;-84
2023/09/21 06:25:48;;;;;;;8.95;7.97;;;18.30;99.90;;;;;;6215039;23;20022;-83
2023/09/21 06:28:15;;;;;;;9.70;8.90;;;18.30;99.90;;;;;;6214096;23;20012;-84
2023/09/21 06:30:41;;;;;;;7.38;6.43;;;18.30;99.90;;;;;;6214723;23;20485;-83
2023/09/21 06:33:07;;;;;;;7.97;7.20;;;18.30;99.90;;;;;;6189881;23;20030;-83
2023/09/21 06:35:33;;;;;;;8.60;7.70;;;18.30;99.90;;;;;;6214804;23;20032;-84
2023/09/21 06:37:59;;;;;;;6.18;5.57;;;18.30;99.90;;;;;;6215023;23;20018;-84
2023/09/21 06:40:25;;;;;;;8.77;7.90;;;18.30;99.90;;;;;;6214907;23;20093;-84
2023/09/21 06:42:52;;;;;;;9.88;8.90;;;18.30;99.90;;;;;;6241872;23;20012;-83
2023/09/21 06:45:18;;;;;;;7.68;6.97;;;18.30;99.90;;;;;;6240157;23;20062;-83
2023/09/21 06:47:47;;;;;;;9.65;8.73;;;18.40;99.90;;;;;;6214752;23;20016;-83
2023/09/21 06:50:14;;;;;;;9.07;8.05;;;18.40;99.90;;;;;;6215067;23;20016;-83
2023/09/21 06:52:40;;;;;;;8.88;7.97;;;18.40;99.90;;;;;;6189333;23;20020;-84
2023/09/21 06:55:06;;;;;;;7.80;7.10;;;18.40;99.90;;;;;;6213753;23;20013;-83
2023/09/21 06:57:34;;;;;;;10.05;7.55;;;18.40;99.90;;;;;;6239701;23;20135;-83
2023/09/21 07:00:08;;;;;;;8.68;7.88;;;18.40;99.90;;;;;;6214253;23;20012;-83
2023/09/21 07:02:33;;;;;;;8.80;8.00;;;18.40;99.90;;;;;;6189316;23;20008;-83
2023/09/21 07:04:59;;;;;;;8.48;7.65;;;18.30;99.90;;;;;;6213856;23;20339;-83
2023/09/21 07:07:25;;;;;;;8.18;6.55;;;18.20;99.90;;;;;;6213790;23;20043;-84
2023/09/21 07:09:53;;;;;;;9.95;9.05;;;18.20;99.90;;;;;;6188387;23;20016;-83
2023/09/21 07:12:19;;;;;;;8.02;6.88;;;18.20;99.90;;;;;;6188730;23;20012;-83
2023/09/21 07:14:45;;;;;;;8.48;7.68;;;18.20;99.90;;;;;;6213697;23;20012;-83
2023/09/21 07:17:11;;;;;;;9.85;8.27;;;18.10;99.90;;;;;;6213803;23;20016;-84
2023/09/21 07:19:37;;;;;;;9.23;8.43;;;18.10;99.90;;;;;;6213501;23;20083;-83
2023/09/21 07:22:03;;;;;;;10.02;9.10;;;18.10;99.90;;;;;;6238986;23;20438;-83
2023/09/21 07:24:30;;;;;;;10.52;9.45;;;18.10;99.90;;;;;;6238347;23;20020;-83
2023/09/21 07:26:56;;;;;;;9.10;7.60;;;18.10;99.90;;;;;;6238755;23;20043;-83
2023/09/21 07:29:23;;;;;;;11.18;10.25;;;18.10;99.90;;;;;;6238908;23;20027;-83
2023/09/21 07:31:49;;;;;;;12.63;9.27;;;18.10;99.90;;;;;;6188450;23;20016;-83
2023/09/21 07:34:15;;;;;;;10.02;9.20;;;18.40;99.90;;;;;;6238657;23;20012;-83
2023/09/21 07:36:41;;;;;;;9.55;8.43;;;18.10;99.90;;;;;;6213451;23;20070;-82
2023/09/21 07:39:11;;;;;;;12.68;7.30;;;18.10;99.90;;;;;;6239999;23;20016;-83
2023/09/21 07:41:39;;;;;;;10.05;9.00;;;18.10;99.90;;;;;;6188518;23;20047;-83
2023/09/21 07:44:08;;;;;;;7.72;6.85;;;18.10;99.90;;;;;;6238442;23;20019;-82
2023/09/21 07:46:35;;;;;;;8.70;7.80;;;18.20;99.90;;;;;;6213306;23;20008;-83
2023/09/21 07:49:02;;;;;;;9.75;8.75;;;18.20;99.90;;;;;;6213508;23;20016;-83
2023/09/21 07:51:28;;;;;;;10.18;7.70;;;18.20;99.90;;;;;;6213567;23;20561;-82
2023/09/21 07:53:54;;;;;;;7.93;7.13;;;18.20;99.90;;;;;;6238222;23;20255;-83
2023/09/21 07:56:19;;;;;;;9.82;8.57;;;18.30;99.90;;;;;;6213323;23;20016;-83
2023/09/21 07:58:45;;;;;;;8.93;8.02;;;18.40;99.90;;;;;;6188086;23;20065;-82
2023/09/21 08:01:11;;;;;;;8.73;7.82;;;18.40;99.90;;;;;;6238766;23;20367;-82
2023/09/21 08:03:37;;;;;;;9.60;8.70;;;18.50;99.90;;;;;;6213610;23;20012;-83
2023/09/21 08:06:03;;;;;;;10.30;9.30;;;18.50;99.90;;;;;;6238441;23;20008;-82
2023/09/21 08:08:28;;;;;;;8.75;7.88;;;18.50;99.90;;;;;;6212938;23;20012;-83
2023/09/21 08:10:54;;;;;;;10.15;9.15;;;18.50;99.90;;;;;;6238446;23;20027;-83
2023/09/21 08:13:20;;;;;;;10.07;9.18;;;18.50;99.90;;;;;;6213839;23;20047;-83
2023/09/21 08:15:46;;;;;;;11.25;10.13;;;18.50;99.90;;;;;;6238417;23;20016;-82
2023/09/21 08:18:12;;;;;;;9.32;8.48;;;18.50;99.90;;;;;;6238489;23;20024;-82
2023/09/21 08:20:39;;;;;;;10.13;9.23;;;18.50;99.90;;;;;;6238927;23;20046;-82
2023/09/21 08:23:06;;;;;;;12.25;9.27;;;18.50;99.90;;;;;;6187984;23;20012;-82
2023/09/21 08:25:33;;;;;;;9.55;8.75;;;18.50;99.90;;;;;;6238589;23;20087;-83
2023/09/21 08:27:59;;;;;;;10.73;9.52;;;18.50;99.90;;;;;;6188250;23;20038;-83
2023/09/21 08:30:25;;;;;;;10.00;9.00;;;18.60;99.90;;;;;;6213123;23;20019;-83
2023/09/21 08:32:52;;;;;;;10.88;7.88;;;18.50;99.90;;;;;;6213286;23;20016;-82
2023/09/21 08:35:17;;;;;;;9.18;8.38;;;18.60;99.90;;;;;;6213170;23;20012;-82
2023/09/21 08:37:43;;;;;;;8.73;7.78;;;18.50;99.90;;;;;;6212502;23;20023;-83
2023/09/21 08:40:10;;;;;;;10.05;9.20;;;18.60;99.90;;;;;;6213285;23;20069;-82
2023/09/21 08:42:36;;;;;;;10.10;9.15;;;18.60;99.90;;;;;;6238442;23;20016;-83
2023/09/21 08:45:11;;;;;;;8.60;7.78;;;18.60;99.90;;;;;;6212798;23;20023;-83
2023/09/21 08:47:40;;;;;;;10.27;8.25;;;18.60;99.90;;;;;;6212834;23;20024;-83
2023/09/21 08:50:07;;;;;;;9.35;8.23;;;18.60;99.90;;;;;;6238065;23;20047;-83
2023/09/21 08:52:34;;;;;;;11.30;8.73;;;18.50;99.90;;;;;;6187420;23;20351;-82
2023/09/21 08:55:00;;;;;;;10.40;9.52;;;18.40;99.90;;;;;;6238006;23;20038;-82
2023/09/21 08:57:26;;;;;;;10.18;9.27;;;18.50;99.90;;;;;;6212685;23;20047;-82
2023/09/21 08:59:55;;;;;;;10.70;9.73;;;18.40;99.90;;;;;;6237868;23;20023;-82
2023/09/21 09:02:23;;;;;;;9.00;8.20;;;18.50;99.90;;;;;;6213071;23;20019;-82
2023/09/21 09:04:50;;;;;;;10.75;8.55;;;18.50;99.90;;;;;;6238025;23;20012;-81
2023/09/21 09:07:18;;;;;;;10.15;9.25;;;18.20;99.90;;;;;;6212146;23;20019;-82
2023/09/21 09:09:45;;;;;;;12.02;10.95;;;18.40;99.90;;;;;;6237979;23;20016;-81
2023/09/21 09:12:24;;;;;;;11.55;10.48;;;18.40;99.90;;;;;;6212613;23;20058;-82
2023/09/21 09:14:57;;;;;;;11.73;10.55;;;18.40;99.90;;;;;;6212424;23;20023;-82
2023/09/21 09:17:30;;;;;;;10.50;9.57;;;18.40;99.90;;;;;;6212908;23;20395;-82
2023/09/21 09:19:57;;;;;;;11.13;10.07;;;18.30;99.90;;;;;;6187249;23;20019;-82
2023/09/21 09:22:24;;;;;;;9.70;8.48;;;18.30;99.90;;;;;;6212989;23;20087;-82
2023/09/21 09:24:55;;;;;;;11.98;9.77;;;18.30;99.90;;;;;;6237830;23;20316;-82
2023/09/21 09:27:21;;;;;;;10.52;9.18;;;18.30;99.90;;;;;;6212964;23;20428;-82
2023/09/21 09:29:51;;;;;;;12.23;10.85;;;18.20;99.90;;;;;;6212632;23;20034;-81
2023/09/21 09:32:22;;;;;;;10.27;9.38;;;18.20;99.90;;;;;;6212788;23;20008;-82
2023/09/21 09:34:48;;;;;;;10.75;9.52;;;18.10;99.90;;;;;;6212049;23;20008;-82
2023/09/21 09:37:15;;;;;;;9.90;9.10;;;18.10;99.90;;;;;;6212539;23;20008;-82
2023/09/21 09:39:45;;;;;;;9.73;8.80;;;18.10;99.90;;;;;;6187408;23;20454;-82
2023/09/21 09:42:13;;;;;;;10.20;9.40;;;18.10;99.90;;;;;;6212489;23;20044;-82
2023/09/21 09:44:49;;;;;;;10.10;9.18;;;18.10;99.90;;;;;;6212538;23;20047;-82
2023/09/21 09:47:17;;;;;;;9.52;8.63;;;18.10;99.90;;;;;;6212583;23;20019;-82
2023/09/21 09:49:47;;;;;;;9.70;8.80;;;18.10;99.90;;;;;;6211902;23;20012;-82
2023/09/21 09:52:18;;;;;;;9.70;8.80;;;18.30;99.90;;;;;;6212606;23;20016;-81
2023/09/21 09:54:47;;;;;;;9.15;8.27;;;18.00;99.90;;;;;;6237939;23;20092;-81
2023/09/21 09:57:15;;;;;;;10.65;8.90;;;18.00;99.90;;;;;;6212906;23;20020;-81
2023/09/21 09:59:42;;;;;;;8.18;7.43;;;17.90;99.90;;;;;;6214406;23;20256;-81
2023/09/21 10:02:14;;;;;;;8.60;7.90;;;17.80;99.90;;;;;;6239829;23;20334;-81
2023/09/21 10:04:41;;;;;;;8.25;7.55;;;17.60;99.90;;;;;;6238733;23;20014;-82
2023/09/21 10:07:08;;;;;;;8.15;7.35;;;17.40;99.90;;;;;;6214478;23;20342;-82
2023/09/21 10:09:34;;;;;;;8.95;8.18;;;17.30;99.90;;;;;;6239847;23;20443;-81
2023/09/21 10:12:03;;;;;;;7.90;7.20;;;17.30;99.90;;;;;;6189223;23;20016;-81
2023/09/21 10:14:36;;;;;;;7.55;6.85;;;17.10;99.90;;;;;;6214348;23;20218;-81
2023/09/21 10:17:04;;;;;;;10.88;9.90;;;17.00;99.90;;;;;;6241415;23;20344;-81
2023/09/21 10:19:36;;;;;;;8.65;7.85;;;16.90;99.90;;;;;;6213284;23;20462;-81
2023/09/21 10:22:21;;;;;;;6.20;5.70;;;17.00;99.90;;;;;;6239609;23;20068;-81
2023/09/21 10:24:53;;;;;;;7.40;6.25;;;16.90;99.90;;;;;;6189247;23;20004;-81
2023/09/21 10:27:24;;;;;;;8.65;7.95;;;16.90;99.90;;;;;;6239503;23;20447;-81
2023/09/21 10:30:02;;;;;;;15.00;14.05;;;16.70;99.90;;;;;;6239267;23;20481;-81
2023/09/21 10:32:43;;;;;;;8.77;8.07;;;16.80;99.90;;;;;;6213713;23;20036;-81
2023/09/21 10:35:18;;;;;;;8.48;7.88;;;16.90;99.90;;;;;;6188915;23;20012;-81
2023/09/21 10:37:49;;;;;;;8.40;7.70;;;16.80;99.90;;;;;;6213974;23;20058;-82
2023/09/21 10:40:22;;;;;;;8.70;8.00;;;16.70;99.90;;;;;;6214057;23;20095;-81
2023/09/21 10:42:47;;;;;;;9.55;8.85;;;16.60;99.90;;;;;;6188811;23;20155;-82
2023/09/21 10:45:13;;;;;;;7.75;7.15;;;16.60;99.90;;;;;;6214135;23;20039;-81
2023/09/21 10:47:44;;;;;;;8.32;7.72;;;16.60;99.90;;;;;;6238560;23;20016;-81
2023/09/21 10:50:12;;;;;;;10.65;9.90;;;16.60;99.90;;;;;;6213903;23;20027;-81
2023/09/21 10:52:44;;;;;;;7.15;6.65;;;16.60;99.90;;;;;;6188746;23;20027;-81
2023/09/21 10:55:12;;;;;;;7.80;7.20;;;16.60;99.90;;;;;;6213829;23;20019;-81
2023/09/21 10:57:39;;;;;;;12.02;11.10;;;16.50;99.90;;;;;;6188786;23;20016;-81
2023/09/21 11:00:16;;;;;;;6.97;6.45;;;16.60;99.90;;;;;;6213797;23;20095;-81
2023/09/21 11:02:42;;;;;;;7.68;7.03;;;16.50;99.90;;;;;;6213513;23;20016;-80
2023/09/21 11:05:09;;;;;;;9.60;8.88;;;16.60;99.90;;;;;;6239438;23;20340;-81
2023/09/21 11:07:36;;;;;;;14.23;13.38;;;16.70;99.90;;;;;;6240998;23;20012;-80
2023/09/21 11:10:06;;;;;;;14.23;13.30;;;16.70;99.90;;;;;;6213904;23;20402;-80
2023/09/21 11:12:32;;;;;;;14.30;13.40;;;16.70;99.90;;;;;;6213661;23;20012;-80
2023/09/21 11:14:58;;;;;;;8.35;7.68;;;16.80;99.90;;;;;;6213506;23;20019;-80
2023/09/21 11:17:24;;;;;;;9.48;8.88;;;16.80;99.90;;;;;;6213113;23;20015;-80
2023/09/21 11:19:50;;;;;;;11.65;10.80;;;16.80;99.90;;;;;;6213573;23;20019;-81
2023/09/21 11:22:16;;;;;;;6.72;6.13;;;16.80;99.90;;;;;;6213882;23;20012;-81
2023/09/21 11:24:42;;;;;;;6.00;5.50;;;16.80;99.90;;;;;;6238809;23;20160;-80
2023/09/21 11:27:14;;;;;;;9.57;8.90;;;16.90;99.90;;;;;;6238715;23;20294;-80
2023/09/21 11:29:41;;;;;;;6.45;5.95;;;16.90;99.90;;;;;;6213626;23;20015;-81
2023/09/21 11:32:17;;;;;;;7.00;6.40;;;16.90;99.90;;;;;;6212786;23;20079;-80
2023/09/21 11:34:44;;;;;;;7.90;7.20;;;16.90;99.90;;;;;;6213801;23;20434;-81
2023/09/21 11:37:11;;;;;;;6.40;5.80;;;17.00;99.90;;;;;;6213423;23;20019;-81
2023/09/21 11:39:39;;;;;;;6.82;6.22;;;16.90;99.90;;;;;;6213395;23;20019;-81
2023/09/21 11:42:10;;;;;;;7.32;6.70;;;17.00;99.90;;;;;;6213380;23;20004;-81
2023/09/21 11:44:39;;;;;;;9.55;8.88;;;16.90;99.90;;;;;;6238642;23;20016;-81
2023/09/21 11:47:09;;;;;;;9.48;8.68;;;17.00;99.90;;;;;;6238441;23;20008;-81
2023/09/21 11:49:40;;;;;;;8.93;8.15;;;17.00;99.90;;;;;;6213560;23;20187;-81
2023/09/21 11:52:07;;;;;;;8.98;8.27;;;17.00;99.90;;;;;;6213289;23;20023;-81
2023/09/21 11:54:38;;;;;;;8.15;7.35;;;17.10;99.90;;;;;;6213664;23;20008;-81
2023/09/21 11:57:04;;;;;;;10.23;9.23;;;17.10;99.90;;;;;;6238362;23;20058;-81
2023/09/21 11:59:32;;;;;;;9.70;8.95;;;17.00;99.90;;;;;;6237711;23;20016;-80
2023/09/21 12:01:59;;;;;;;10.25;9.50;;;17.00;99.90;;;;;;6240356;23;20018;-81
2023/09/21 12:04:29;;;;;;;9.45;8.77;;;17.00;99.90;;;;;;6213096;23;20019;-81
2023/09/21 12:06:55;;;;;;;14.18;13.23;;;17.00;99.90;;;;;;6240408;23;20016;-81
2023/09/21 12:09:21;;;;;;;13.90;12.95;;;17.10;99.90;;;;;;6213037;23;20016;-80
2023/09/21 12:11:49;;;;;;;11.13;10.25;;;17.10;99.90;;;;;;6212979;23;20023;-81
2023/09/21 12:14:15;;;;;;;7.13;6.53;;;17.00;99.90;;;;;;6239344;23;20008;-81
2023/09/21 12:16:40;;;;;;;7.68;6.95;;;17.10;99.90;;;;;;6212694;23;20020;-81
2023/09/21 12:19:08;;;;;;;8.52;7.82;;;17.10;99.90;;;;;;6212782;23;20016;-81
2023/09/21 12:21:34;;;;;;;7.35;6.85;;;17.10;99.90;;;;;;6238026;23;20345;-80
2023/09/21 12:24:02;;;;;;;8.32;7.55;;;17.10;99.90;;;;;;6213229;23;20023;-81
2023/09/21 12:26:29;;;;;;;8.30;7.50;;;17.10;99.90;;;;;;6238277;23;20043;-80
2023/09/21 12:28:54;;;;;;;7.43;6.82;;;17.10;99.90;;;;;;6212280;23;20609;-81
2023/09/21 12:31:22;;;;;;;7.28;6.78;;;17.10;99.90;;;;;;6212780;23;20239;-81
2023/09/21 12:33:50;;;;;;;7.30;6.70;;;17.10;99.90;;;;;;6212898;23;20027;-81
2023/09/21 12:36:16;;;;;;;7.53;6.82;;;17.20;99.90;;;;;;6212838;23;20012;-81
2023/09/21 12:38:42;;;;;;;8.48;6.97;;;17.20;99.90;;;;;;6237932;23;20020;-80
2023/09/21 12:41:10;;;;;;;7.40;6.82;;;17.20;99.90;;;;;;6238183;23;20020;-80
2023/09/21 12:43:38;;;;;;;7.70;7.20;;;17.20;99.90;;;;;;6212362;23;20012;-81